Akiachak, Alaska
Current Conditions -  °F | °C
As of 1:56 PM on Thursday 20 Nov 2014 (Local Time) from PFKW Reporting Station
Overcast Overcast  
Wind Chill: 27°   Ceiling: 10000
Heat Index: 37°   Visibility: 10mi
Dew Point: 28°   Wind: 20mph
Humidity: 70%   Direction: 40°NE
Pressure: 28.98"   Gusts: 23mph
Location:  60.91°N, 161.44°W
Report Text: PFKW 202256Z AUTO 04017G20KT 10SM OVC100 03/M02 A2898 RMK AO2 PK WND 04027/2200 SLP816 T00281022 $
Loading
Personal Weather Stations






























Interactive Weather Map New forecast layout! Learn more

10-Day Weather Forecast

Advertisements
Track Severe Weather on mobile